Time;durP1;ratioP1;P1;durP2;ratioP2;P2;SDS_P1;SDS_P2;PMS_P1;PMS_P2;Temp;Humidity;BMP_temperature;BMP_pressure;BME280_temperature;BME280_humidity;BME280_pressure;Samples;Min_cycle;Max_cycle;Signal;HPM_P1;HPM_P2
2022/03/17 01:02:35;;;;;;;0.25;0.25;;;8.90;99.90;;;;;;4996129;28;20073;-74
2022/03/17 01:05:01;;;;;;;0.10;0.10;;;8.90;99.90;;;;;;4996672;28;20498;-75
2022/03/17 01:14:26;;;;;;;0.10;0.10;;;8.90;99.90;;;;;;4996030;28;20091;-74
2022/03/17 01:16:52;;;;;;;0.22;0.22;;;8.90;99.90;;;;;;4996750;28;20516;-74
2022/03/17 01:19:19;;;;;;;0.52;0.52;;;8.90;99.90;;;;;;4996245;28;20124;-74
2022/03/17 01:21:49;;;;;;;1.48;1.35;;;8.90;99.90;;;;;;4996435;28;20181;-75
2022/03/17 01:24:16;;;;;;;0.57;0.57;;;9.00;99.90;;;;;;4996639;28;20050;-74
2022/03/17 01:26:42;;;;;;;0.30;0.30;;;9.00;99.90;;;;;;4996307;28;20109;-74
2022/03/17 01:29:08;;;;;;;1.45;1.35;;;9.00;99.90;;;;;;4996537;28;20129;-74
2022/03/17 01:31:34;;;;;;;0.13;0.13;;;9.10;99.90;;;;;;4995849;28;20046;-75
2022/03/17 01:34:00;;;;;;;0.68;0.68;;;9.00;99.90;;;;;;4996280;28;20042;-74
2022/03/17 01:36:26;;;;;;;0.20;0.20;;;9.10;99.90;;;;;;4996136;28;20038;-74
2022/03/17 01:38:53;;;;;;;1.33;0.43;;;9.10;99.90;;;;;;4995118;28;20485;-75
2022/03/17 01:41:18;;;;;;;0.45;0.45;;;9.10;99.90;;;;;;4995872;28;20038;-75
2022/03/17 01:43:44;;;;;;;0.60;0.57;;;9.00;99.90;;;;;;4995985;28;20050;-75
2022/03/17 01:46:14;;;;;;;0.65;0.65;;;8.90;99.90;;;;;;4995604;28;20445;-75
2022/03/17 01:48:41;;;;;;;0.10;0.10;;;9.00;99.90;;;;;;4995899;28;20115;-74
2022/03/17 01:51:07;;;;;;;1.95;0.40;;;9.00;99.90;;;;;;4996065;28;20045;-74
2022/03/17 01:53:33;;;;;;;0.35;0.35;;;9.00;99.90;;;;;;4996056;28;20369;-75
2022/03/17 01:56:01;;;;;;;0.10;0.10;;;9.10;99.90;;;;;;4995793;28;20038;-75
2022/03/17 01:58:27;;;;;;;0.15;0.15;;;9.10;99.90;;;;;;4995463;28;20409;-75
2022/03/17 02:00:52;;;;;;;0.10;0.10;;;9.20;99.90;;;;;;4995075;28;20065;-74
2022/03/17 02:03:19;;;;;;;0.60;0.57;;;9.10;99.90;;;;;;4995714;28;20038;-74
2022/03/17 02:05:45;;;;;;;0.43;0.43;;;9.10;99.90;;;;;;4995383;28;20152;-75
2022/03/17 02:08:14;;;;;;;0.20;0.20;;;9.20;99.90;;;;;;4996166;28;20173;-75
2022/03/17 02:13:24;;;;;;;0.10;0.10;;;9.30;99.90;;;;;;4995170;28;20042;-74
2022/03/17 02:15:54;;;;;;;0.25;0.25;;;9.30;99.90;;;;;;4995028;28;20041;-75
2022/03/17 02:18:21;;;;;;;0.93;0.40;;;9.40;99.90;;;;;;4995797;28;20121;-74
2022/03/17 02:20:47;;;;;;;0.10;0.10;;;9.40;99.90;;;;;;4995600;28;20485;-75
2022/03/17 02:26:00;;;;;;;0.30;0.30;;;9.70;99.90;;;;;;4995080;28;20060;-74
2022/03/17 02:28:28;;;;;;;0.10;0.10;;;9.70;99.90;;;;;;4995346;28;20045;-75
2022/03/17 02:30:55;;;;;;;0.10;0.10;;;9.70;99.90;;;;;;4995050;28;20045;-74
2022/03/17 02:33:22;;;;;;;0.17;0.17;;;9.70;99.90;;;;;;4995760;28;20100;-75
2022/03/17 02:35:49;;;;;;;0.20;0.20;;;9.70;99.90;;;;;;4995473;28;20053;-75
2022/03/17 02:38:17;;;;;;;0.30;0.30;;;9.80;99.90;;;;;;4995124;28;20034;-75
2022/03/17 02:40:46;;;;;;;0.10;0.10;;;9.90;99.90;;;;;;4995195;28;20038;-75
2022/03/17 02:43:14;;;;;;;0.10;0.10;;;9.90;99.90;;;;;;4995163;28;20045;-75
2022/03/17 02:45:41;;;;;;;0.10;0.10;;;9.80;99.90;;;;;;4994906;28;20034;-75
2022/03/17 02:48:07;;;;;;;0.25;0.25;;;9.80;99.90;;;;;;4995122;28;20065;-74
2022/03/17 02:50:34;;;;;;;0.10;0.10;;;9.70;99.90;;;;;;4996753;28;20046;-74
2022/03/17 02:53:05;;;;;;;0.10;0.10;;;9.70;99.90;;;;;;4999634;28;20049;-74
2022/03/17 02:55:39;;;;;;;0.10;0.10;;;9.70;99.90;;;;;;4999535;28;20046;-75
2022/03/17 02:58:06;;;;;;;0.17;0.17;;;9.70;99.90;;;;;;4999372;28;20038;-75
2022/03/17 03:00:33;;;;;;;0.10;0.10;;;9.80;99.90;;;;;;4998488;28;20058;-75
2022/03/17 03:02:59;;;;;;;0.10;0.10;;;9.90;99.90;;;;;;4999508;28;20057;-75
2022/03/17 03:05:26;;;;;;;0.20;0.20;;;9.90;99.90;;;;;;4999440;28;20042;-75
2022/03/17 03:07:53;;;;;;;0.10;0.10;;;9.90;99.90;;;;;;4998928;28;20066;-75
2022/03/17 03:10:20;;;;;;;0.25;0.25;;;9.80;99.90;;;;;;4999300;28;20042;-75
2022/03/17 03:12:46;;;;;;;0.10;0.10;;;9.90;99.90;;;;;;4999382;28;20068;-75
2022/03/17 03:15:13;;;;;;;0.98;0.95;;;10.00;99.90;;;;;;4998908;28;20509;-75
2022/03/17 03:17:39;;;;;;;0.10;0.10;;;9.90;99.90;;;;;;4998723;28;20113;-75
2022/03/17 03:20:06;;;;;;;0.10;0.10;;;9.90;99.90;;;;;;4998901;28;20129;-74
2022/03/17 03:22:39;;;;;;;5.05;0.30;;;10.00;99.90;;;;;;4998992;28;20042;-74
2022/03/17 03:25:06;;;;;;;0.10;0.10;;;10.00;99.90;;;;;;4999162;28;20050;-74
2022/03/17 03:27:32;;;;;;;0.10;0.10;;;10.00;99.90;;;;;;4998866;28;20045;-74
2022/03/17 03:29:58;;;;;;;0.10;0.10;;;10.00;99.90;;;;;;4999384;28;20425;-74
2022/03/17 03:32:25;;;;;;;0.10;0.10;;;9.90;99.90;;;;;;4998359;28;20056;-74
2022/03/17 03:34:51;;;;;;;0.10;0.10;;;9.90;99.90;;;;;;4998631;28;20038;-74
2022/03/17 03:37:24;;;;;;;0.10;0.10;;;10.00;99.90;;;;;;4998301;28;20045;-74
2022/03/17 03:39:55;;;;;;;0.30;0.30;;;9.90;99.90;;;;;;4998933;28;20081;-75
2022/03/17 03:42:21;;;;;;;0.10;0.10;;;9.80;99.90;;;;;;4998913;28;20042;-74
2022/03/17 03:44:48;;;;;;;0.10;0.10;;;9.80;99.90;;;;;;4998235;28;20359;-75
2022/03/17 03:47:14;;;;;;;0.20;0.20;;;9.80;99.90;;;;;;4998347;28;20044;-75
2022/03/17 03:49:41;;;;;;;1.00;0.55;;;9.90;99.90;;;;;;4998075;28;20444;-75
2022/03/17 03:52:13;;;;;;;0.10;0.10;;;9.80;99.90;;;;;;4999001;28;20042;-75
2022/03/17 03:54:39;;;;;;;0.30;0.30;;;9.90;99.90;;;;;;4998327;28;20078;-75
2022/03/17 03:57:06;;;;;;;0.10;0.10;;;10.00;99.90;;;;;;4998321;28;20042;-75
2022/03/17 03:59:32;;;;;;;0.15;0.15;;;10.00;99.90;;;;;;4998500;28;20568;-75
2022/03/17 04:02:05;;;;;;;0.00;0.00;;;10.00;99.90;;;;;;4996444;28;20054;-75
2022/03/17 04:04:32;;;;;;;0.10;0.10;;;10.10;99.90;;;;;;4997508;28;20034;-74
2022/03/17 04:07:01;;;;;;;0.22;0.22;;;10.00;99.90;;;;;;4997535;28;20164;-75
2022/03/17 04:09:29;;;;;;;0.20;0.20;;;10.00;99.90;;;;;;4997704;28;20034;-75
2022/03/17 04:11:56;;;;;;;0.10;0.10;;;10.00;99.90;;;;;;4997145;28;20038;-75
2022/03/17 04:14:23;;;;;;;0.10;0.10;;;10.10;99.90;;;;;;4997335;28;20057;-74
2022/03/17 04:16:50;;;;;;;0.15;0.15;;;10.10;99.90;;;;;;4997572;28;20527;-74
2022/03/17 04:19:16;;;;;;;0.30;0.30;;;10.10;99.90;;;;;;4997651;28;20042;-75
2022/03/17 04:21:46;;;;;;;0.10;0.10;;;10.20;99.90;;;;;;4997560;28;20038;-74
2022/03/17 04:24:13;;;;;;;0.10;0.10;;;10.10;99.90;;;;;;4997603;28;20528;-75
2022/03/17 04:26:39;;;;;;;0.03;0.03;;;10.10;99.90;;;;;;4997415;28;20052;-74
2022/03/17 04:29:06;;;;;;;0.10;0.10;;;10.00;99.90;;;;;;4997489;28;20038;-74
2022/03/17 04:31:33;;;;;;;0.10;0.10;;;9.90;99.90;;;;;;4997058;28;20088;-74
2022/03/17 04:34:00;;;;;;;0.10;0.10;;;9.90;99.90;;;;;;4996931;28;20125;-74
2022/03/17 04:36:25;;;;;;;0.75;0.55;;;10.00;99.90;;;;;;4997101;28;20042;-74
2022/03/17 04:38:51;;;;;;;0.10;0.10;;;9.80;99.90;;;;;;4996987;28;20080;-74
2022/03/17 04:41:18;;;;;;;0.10;0.10;;;9.80;99.90;;;;;;4979895;28;20389;-74
2022/03/17 04:43:45;;;;;;;0.30;0.30;;;9.70;99.90;;;;;;4996928;28;20558;-74
2022/03/17 04:46:10;;;;;;;0.22;0.22;;;9.60;99.90;;;;;;4996798;28;20046;-74
2022/03/17 04:48:37;;;;;;;0.10;0.10;;;9.70;99.90;;;;;;4997062;28;20030;-74
2022/03/17 04:51:05;;;;;;;0.10;0.10;;;9.60;99.90;;;;;;4997182;28;20046;-74
2022/03/17 04:53:32;;;;;;;0.00;0.00;;;9.50;99.90;;;;;;4996567;28;20122;-74
2022/03/17 04:56:00;;;;;;;0.00;0.00;;;9.40;99.90;;;;;;4997003;28;20053;-75
2022/03/17 04:58:28;;;;;;;0.10;0.10;;;9.40;99.90;;;;;;5001198;28;20038;-76
2022/03/17 05:00:55;;;;;;;0.10;0.10;;;9.40;99.90;;;;;;5014366;28;20072;-75
2022/03/17 05:03:22;;;;;;;0.10;0.10;;;9.40;99.90;;;;;;5016420;28;20073;-74
2022/03/17 05:05:48;;;;;;;0.10;0.10;;;9.30;99.90;;;;;;5000930;28;20046;-75
2022/03/17 05:08:14;;;;;;;0.10;0.10;;;9.20;99.90;;;;;;4999593;28;20100;-75
2022/03/17 05:10:44;;;;;;;0.10;0.10;;;9.20;99.90;;;;;;5004540;28;20117;-75
2022/03/17 05:13:12;;;;;;;0.10;0.10;;;9.20;99.90;;;;;;5005804;28;20034;-75
2022/03/17 05:15:38;;;;;;;0.00;0.00;;;9.20;99.90;;;;;;5006739;28;20042;-75
2022/03/17 05:18:06;;;;;;;0.10;0.10;;;9.20;99.90;;;;;;5012408;28;20065;-75
2022/03/17 05:20:36;;;;;;;0.10;0.10;;;9.10;99.90;;;;;;4998266;28;20042;-77
2022/03/17 05:23:10;;;;;;;0.10;0.10;;;9.10;99.90;;;;;;4996471;28;20567;-76
2022/03/17 05:25:38;;;;;;;0.10;0.10;;;9.10;99.90;;;;;;5004071;28;20273;-77
2022/03/17 05:28:05;;;;;;;0.20;0.20;;;9.00;99.90;;;;;;5014206;28;20042;-75
2022/03/17 05:30:31;;;;;;;0.10;0.10;;;9.10;99.90;;;;;;5014848;28;20048;-74
2022/03/17 05:32:57;;;;;;;0.10;0.10;;;9.10;99.90;;;;;;5014114;28;20046;-74
2022/03/17 05:35:23;;;;;;;0.10;0.10;;;9.00;99.90;;;;;;5005193;28;20034;-77
2022/03/17 05:37:50;;;;;;;0.00;0.00;;;9.00;99.90;;;;;;5005381;28;20041;-76
2022/03/17 05:40:17;;;;;;;0.10;0.10;;;9.00;99.90;;;;;;4998168;28;20061;-77
2022/03/17 05:42:46;;;;;;;0.13;0.13;;;9.00;99.90;;;;;;4996639;28;20046;-77
2022/03/17 05:45:13;;;;;;;0.20;0.20;;;9.00;99.90;;;;;;4996122;28;20200;-78
2022/03/17 05:47:59;;;;;;;0.00;0.00;;;9.00;99.90;;;;;;4995889;28;20045;-76
2022/03/17 05:50:28;;;;;;;0.10;0.10;;;9.00;99.90;;;;;;5004942;28;20042;-77
2022/03/17 05:52:54;;;;;;;0.15;0.15;;;9.00;99.90;;;;;;5015612;28;20539;-78
2022/03/17 05:55:22;;;;;;;0.10;0.10;;;9.00;99.90;;;;;;5015668;28;20038;-77
2022/03/17 05:57:49;;;;;;;0.10;0.10;;;9.00;99.90;;;;;;5015516;28;20046;-77
2022/03/17 06:00:17;;;;;;;0.20;0.20;;;9.00;99.90;;;;;;5014590;28;20038;-77
2022/03/17 06:02:44;;;;;;;0.10;0.10;;;9.00;99.90;;;;;;5015314;28;20087;-77
2022/03/17 06:05:11;;;;;;;0.10;0.10;;;9.00;99.90;;;;;;5004033;28;20054;-77
2022/03/17 06:07:44;;;;;;;0.10;0.10;;;9.00;99.90;;;;;;5012334;28;20038;-77
2022/03/17 06:10:13;;;;;;;0.10;0.10;;;9.00;99.90;;;;;;5005930;28;20093;-77
2022/03/17 06:12:39;;;;;;;0.10;0.10;;;9.10;99.90;;;;;;4995616;28;20034;-77
2022/03/17 06:15:07;;;;;;;0.10;0.10;;;9.10;99.90;;;;;;5007740;28;20049;-77
2022/03/17 06:17:39;;;;;;;0.10;0.10;;;9.10;99.90;;;;;;5007836;28;20045;-77
2022/03/17 06:20:09;;;;;;;0.10;0.10;;;9.10;99.90;;;;;;4995150;28;20504;-77
2022/03/17 06:22:43;;;;;;;0.10;0.10;;;9.10;99.90;;;;;;4995429;28;20117;-77
2022/03/17 06:25:13;;;;;;;0.00;0.00;;;9.20;99.90;;;;;;4994879;28;20050;-78
2022/03/17 06:27:41;;;;;;;0.40;0.40;;;9.30;99.90;;;;;;4995858;28;20034;-77
2022/03/17 06:30:09;;;;;;;0.10;0.10;;;9.50;99.90;;;;;;4994720;28;20034;-78
2022/03/17 06:32:35;;;;;;;0.10;0.10;;;9.60;99.90;;;;;;4995867;28;20088;-76
2022/03/17 06:35:01;;;;;;;0.10;0.10;;;9.50;99.90;;;;;;4995101;28;20202;-78
2022/03/17 06:37:27;;;;;;;0.10;0.10;;;9.50;99.90;;;;;;5002793;28;20572;-77
2022/03/17 06:39:56;;;;;;;0.08;0.08;;;9.60;99.90;;;;;;5008851;28;20049;-77
2022/03/17 06:42:22;;;;;;;0.10;0.10;;;9.80;99.90;;;;;;5011485;28;20049;-77
2022/03/17 06:44:48;;;;;;;0.10;0.10;;;9.80;99.90;;;;;;5014702;28;20396;-77
2022/03/17 06:47:14;;;;;;;0.10;0.10;;;9.90;99.90;;;;;;5013909;28;20527;-79
2022/03/17 06:49:40;;;;;;;0.10;0.10;;;9.90;99.90;;;;;;5013323;28;20052;-77
2022/03/17 06:52:06;;;;;;;0.10;0.10;;;9.90;99.90;;;;;;4996810;28;20128;-80
2022/03/17 06:54:32;;;;;;;0.03;0.03;;;9.90;99.90;;;;;;4996787;28;20104;-79
2022/03/17 06:56:59;;;;;;;0.10;0.10;;;9.90;99.90;;;;;;5014925;28;20045;-80
2022/03/17 06:59:25;;;;;;;0.10;0.10;;;10.00;99.90;;;;;;5014597;28;20037;-80
2022/03/17 07:01:51;;;;;;;0.10;0.10;;;10.00;99.90;;;;;;5014825;28;20057;-78
2022/03/17 07:04:17;;;;;;;0.10;0.10;;;10.00;99.90;;;;;;5014846;28;20044;-78
2022/03/17 07:06:43;;;;;;;0.10;0.10;;;10.10;99.90;;;;;;4997219;28;20041;-78
2022/03/17 07:09:08;;;;;;;0.10;0.10;;;10.10;99.90;;;;;;5014784;28;20045;-78
2022/03/17 07:11:34;;;;;;;0.10;0.10;;;10.10;99.90;;;;;;5013613;28;20033;-79
2022/03/17 07:14:00;;;;;;;0.20;0.20;;;10.20;99.90;;;;;;5014394;28;20084;-78
2022/03/17 07:16:26;;;;;;;0.20;0.20;;;10.30;99.90;;;;;;4997111;28;20116;-79
2022/03/17 07:18:52;;;;;;;0.43;0.43;;;10.40;99.90;;;;;;5014710;28;20044;-80
2022/03/17 07:21:18;;;;;;;0.10;0.10;;;10.40;99.90;;;;;;5014931;28;20200;-79
2022/03/17 07:23:44;;;;;;;0.10;0.10;;;10.50;99.90;;;;;;5014383;28;20046;-78
2022/03/17 07:26:09;;;;;;;0.20;0.20;;;10.60;99.90;;;;;;5014666;28;20512;-77
2022/03/17 07:28:35;;;;;;;1.00;0.40;;;10.60;99.90;;;;;;5014598;28;20065;-77
2022/03/17 07:31:01;;;;;;;0.32;0.32;;;10.80;99.90;;;;;;5013830;28;20041;-79
2022/03/17 07:33:27;;;;;;;0.40;0.40;;;11.00;99.90;;;;;;4995226;28;20561;-79
2022/03/17 07:35:53;;;;;;;0.10;0.10;;;11.10;99.90;;;;;;4995613;28;20050;-77
2022/03/17 07:38:19;;;;;;;0.20;0.20;;;11.20;99.90;;;;;;4998297;28;20085;-78
2022/03/17 07:40:46;;;;;;;0.20;0.20;;;11.10;99.90;;;;;;4998659;28;20045;-79
2022/03/17 07:43:12;;;;;;;0.22;0.22;;;11.10;99.90;;;;;;4998600;28;20133;-77
2022/03/17 07:45:38;;;;;;;0.10;0.10;;;11.20;99.90;;;;;;4998389;28;20125;-78
2022/03/17 07:48:07;;;;;;;0.10;0.10;;;11.20;99.90;;;;;;5003330;28;20391;-76
2022/03/17 07:50:34;;;;;;;0.30;0.25;;;11.20;99.90;;;;;;5018158;28;20105;-76
2022/03/17 07:53:00;;;;;;;0.30;0.30;;;11.30;99.90;;;;;;5014525;28;20125;-77
2022/03/17 07:55:27;;;;;;;0.35;0.35;;;11.40;99.90;;;;;;4999528;28;20125;-76
2022/03/17 07:57:53;;;;;;;0.47;0.47;;;11.50;99.90;;;;;;5016487;28;20395;-76
2022/03/17 08:00:19;;;;;;;0.20;0.20;;;11.60;99.90;;;;;;5017506;28;20046;-77
2022/03/17 08:02:45;;;;;;;0.10;0.10;;;11.70;99.90;;;;;;5017907;28;20096;-77
2022/03/17 08:05:12;;;;;;;0.15;0.15;;;11.70;99.90;;;;;;5016843;28;20046;-76
2022/03/17 08:07:38;;;;;;;0.20;0.20;;;11.80;99.90;;;;;;4998396;28;20528;-76
2022/03/17 08:10:05;;;;;;;0.20;0.20;;;11.90;99.90;;;;;;4984786;28;20037;-76
2022/03/17 08:12:31;;;;;;;0.20;0.20;;;12.00;99.90;;;;;;5006973;28;20038;-77
2022/03/17 08:14:58;;;;;;;0.30;0.30;;;12.10;99.90;;;;;;5016702;28;20053;-76
2022/03/17 08:17:24;;;;;;;0.10;0.10;;;12.20;99.90;;;;;;5014925;28;20133;-77
2022/03/17 08:19:53;;;;;;;0.15;0.15;;;12.30;99.90;;;;;;5001418;28;20045;-77
2022/03/17 08:22:19;;;;;;;0.20;0.20;;;12.30;90.40;;;;;;4997927;28;20030;-77
2022/03/17 08:24:45;;;;;;;0.20;0.20;;;12.50;85.90;;;;;;4997662;28;20061;-77
2022/03/17 08:27:10;;;;;;;0.15;0.15;;;12.50;84.00;;;;;;4997603;28;20496;-77
2022/03/17 08:29:38;;;;;;;0.10;0.10;;;12.40;78.60;;;;;;5007667;28;20048;-77
2022/03/17 08:32:05;;;;;;;0.32;0.32;;;12.30;73.00;;;;;;5000801;28;20034;-78
2022/03/17 08:34:32;;;;;;;0.30;0.30;;;12.30;77.10;;;;;;4997154;28;20050;-77
2022/03/17 08:36:59;;;;;;;0.20;0.20;;;12.50;74.90;;;;;;4997330;28;20034;-77
2022/03/17 08:39:26;;;;;;;0.10;0.10;;;12.50;67.10;;;;;;4997272;28;20125;-77
2022/03/17 08:41:52;;;;;;;0.20;0.20;;;12.50;58.70;;;;;;4998383;28;20132;-77
2022/03/17 08:44:19;;;;;;;0.22;0.22;;;12.40;61.20;;;;;;4978240;28;20054;-77
2022/03/17 08:49:29;;;;;;;0.30;0.30;;;12.60;48.90;;;;;;5009959;28;20097;-76
2022/03/17 08:51:58;;;;;;;0.10;0.10;;;12.80;44.30;;;;;;5009840;28;20037;-76
2022/03/17 08:54:26;;;;;;;0.17;0.17;;;12.80;51.10;;;;;;4998609;28;20052;-76
2022/03/17 08:56:59;;;;;;;0.20;0.20;;;13.00;43.00;;;;;;4997471;28;20033;-76
2022/03/17 08:59:34;;;;;;;0.10;0.10;;;13.30;31.00;;;;;;5010032;28;20080;-77
2022/03/17 09:02:11;;;;;;;0.10;0.10;;;13.30;31.30;;;;;;5009727;28;20139;-76
2022/03/17 09:04:37;;;;;;;0.10;0.10;;;13.10;30.60;;;;;;5007294;28;20062;-76
2022/03/17 09:07:03;;;;;;;0.88;0.30;;;13.30;29.50;;;;;;5006550;28;20031;-76
2022/03/17 09:09:34;;;;;;;0.30;0.30;;;13.40;27.20;;;;;;5012073;28;20052;-76
2022/03/17 09:12:04;;;;;;;;;;;13.40;20.20;;;;;;5001948;28;20042;-76
2022/03/17 09:14:40;;;;;;;0.40;0.40;;;13.40;22.00;;;;;;5003134;28;19914;-76
2022/03/17 09:17:06;;;;;;;0.65;0.43;;;13.60;24.00;;;;;;4984317;28;20138;-76
2022/03/17 09:19:32;;;;;;;0.20;0.20;;;13.70;14.60;;;;;;5006954;28;20042;-77
2022/03/17 09:21:59;;;;;;;0.17;0.17;;;13.50;15.70;;;;;;5016445;28;20042;-77
2022/03/17 09:24:26;;;;;;;0.10;0.10;;;13.30;15.60;;;;;;4998909;28;20041;-77
2022/03/17 09:26:53;;;;;;;0.20;0.20;;;13.30;14.90;;;;;;5003641;28;20512;-77
2022/03/17 09:29:19;;;;;;;0.20;0.20;;;13.50;14.30;;;;;;5015057;28;20033;-77
2022/03/17 09:31:46;;;;;;;0.30;0.30;;;13.30;11.10;;;;;;5002899;28;20432;-76
2022/03/17 09:34:12;;;;;;;0.20;0.20;;;13.30;13.50;;;;;;5014671;28;20061;-76
2022/03/17 09:36:39;;;;;;;0.20;0.20;;;13.10;10.60;;;;;;5015299;28;20064;-76
2022/03/17 09:41:49;;;;;;;0.43;0.43;;;13.20;10.80;;;;;;5013065;28;20076;-76
2022/03/17 09:44:15;;;;;;;0.20;0.20;;;13.20;9.50;;;;;;5002696;28;20066;-76
2022/03/17 09:46:45;;;;;;;0.10;0.10;;;13.20;9.70;;;;;;5011172;28;20468;-77
2022/03/17 09:49:11;;;;;;;0.20;0.20;;;13.20;5.70;;;;;;5014364;28;20571;-76
2022/03/17 09:51:39;;;;;;;1.25;0.25;;;13.20;12.40;;;;;;5015694;28;20062;-77
2022/03/17 09:54:05;;;;;;;1.50;0.40;;;13.10;9.30;;;;;;5015429;28;20041;-77
2022/03/17 09:56:31;;;;;;;0.30;0.28;;;13.20;11.30;;;;;;5015261;28;20041;-77
2022/03/17 09:58:59;;;;;;;0.20;0.20;;;13.20;5.30;;;;;;5014967;28;20070;-77
2022/03/17 10:01:26;;;;;;;1.23;0.60;;;13.30;9.30;;;;;;5014892;28;20042;-77
2022/03/17 10:03:58;;;;;;;0.40;0.25;;;13.40;11.30;;;;;;5016223;28;20046;-77
2022/03/17 10:06:24;;;;;;;0.20;0.20;;;13.60;14.00;;;;;;5015738;28;20069;-77
2022/03/17 10:08:51;;;;;;;0.30;0.30;;;13.50;7.30;;;;;;5015322;28;20042;-77
2022/03/17 10:11:31;;;;;;;0.10;0.10;;;13.50;9.50;;;;;;5015656;28;20048;-77
2022/03/17 10:13:59;;;;;;;0.10;0.10;;;13.60;6.30;;;;;;5015663;28;20096;-77
2022/03/17 10:16:27;;;;;;;0.10;0.10;;;13.70;11.50;;;;;;5015177;28;20127;-77
2022/03/17 10:19:01;;;;;;;0.10;0.10;;;13.70;13.00;;;;;;5015132;28;20041;-77
2022/03/17 10:21:28;;;;;;;0.20;0.20;;;13.90;17.00;;;;;;5015528;28;20046;-77
2022/03/17 10:24:06;;;;;;;0.28;0.28;;;13.90;6.70;;;;;;5015082;28;20038;-76
2022/03/17 10:26:37;;;;;;;0.20;0.20;;;14.00;7.10;;;;;;5015408;28;20048;-77
2022/03/17 10:29:17;;;;;;;0.10;0.10;;;13.80;5.40;;;;;;5015333;28;20057;-77
2022/03/17 10:32:06;;;;;;;0.10;0.10;;;13.90;5.40;;;;;;5015145;28;20041;-77
2022/03/17 10:34:47;;;;;;;0.10;0.10;;;13.90;7.10;;;;;;4997511;28;20050;-77
2022/03/17 10:37:16;;;;;;;;;;;14.00;8.70;;;;;;5015289;28;20123;-77
2022/03/17 10:39:45;;;;;;;1.15;0.25;;;14.00;6.30;;;;;;5015165;28;19999;-77
2022/03/17 10:42:12;;;;;;;1.08;0.40;;;13.90;8.00;;;;;;5015407;28;20038;-76
2022/03/17 10:44:44;;;;;;;1.02;0.93;;;13.90;8.50;;;;;;5015279;28;20054;-77
2022/03/17 10:47:10;;;;;;;0.10;0.10;;;14.10;4.40;;;;;;4987480;28;20061;-75
2022/03/17 10:49:37;;;;;;;0.10;0.10;;;14.10;1.00;;;;;;5013189;28;20111;-75
2022/03/17 10:52:04;;;;;;;0.17;0.17;;;14.10;7.20;;;;;;5013447;28;20038;-76
2022/03/17 10:54:29;;;;;;;0.20;0.20;;;14.30;1.00;;;;;;5007006;28;20057;-76
2022/03/17 10:57:03;;;;;;;0.10;0.10;;;14.20;1.10;;;;;;4990913;28;20038;-76
2022/03/17 10:59:47;;;;;;;0.32;0.30;;;14.20;1.00;;;;;;5015003;28;20050;-77
2022/03/17 11:02:18;;;;;;;0.10;0.10;;;14.20;1.40;;;;;;5014811;28;20089;-77
2022/03/17 11:04:45;;;;;;;0.10;0.10;;;14.30;1.00;;;;;;5014448;28;20145;-77
2022/03/17 11:07:16;;;;;;;0.40;0.40;;;14.30;1.00;;;;;;4996796;28;20571;-76
2022/03/17 11:09:45;;;;;;;0.30;0.30;;;14.30;1.00;;;;;;5001908;28;20112;-75
2022/03/17 11:12:20;;;;;;;0.10;0.10;;;14.40;1.00;;;;;;4996598;28;20070;-76
2022/03/17 11:14:50;;;;;;;0.13;0.13;;;14.40;1.00;;;;;;4980829;28;20046;-76
2022/03/17 11:17:23;;;;;;;0.20;0.20;;;14.70;1.00;;;;;;5012293;28;20046;-76
2022/03/17 11:19:49;;;;;;;0.40;0.40;;;14.70;1.00;;;;;;5018355;28;20030;-76
2022/03/17 11:22:22;;;;;;;0.20;0.20;;;14.40;1.00;;;;;;5017596;28;20125;-76
2022/03/17 11:25:19;;;;;;;0.20;0.20;;;14.50;1.00;;;;;;5003659;28;20056;-75
2022/03/17 11:27:49;;;;;;;0.35;0.35;;;14.50;1.00;;;;;;4998090;28;20045;-75
2022/03/17 11:30:16;;;;;;;;;;;14.40;1.00;;;;;;5013233;28;20092;-75
2022/03/17 11:32:55;;;;;;;2.13;0.57;;;14.60;1.00;;;;;;5017596;28;19909;-75
2022/03/17 11:35:25;;;;;;;0.20;0.20;;;14.70;1.00;;;;;;5006969;28;20050;-76
2022/03/17 11:38:15;;;;;;;0.30;0.30;;;14.80;1.00;;;;;;5014327;28;20117;-75
2022/03/17 11:41:08;;;;;;;0.10;0.10;;;14.80;1.00;;;;;;4997568;28;20069;-75
2022/03/17 11:43:54;;;;;;;0.25;0.25;;;14.70;1.00;;;;;;4998064;28;20038;-75
2022/03/17 11:46:25;;;;;;;0.20;0.20;;;15.10;1.00;;;;;;4996854;28;20096;-75
2022/03/17 11:48:52;;;;;;;;;;;15.30;1.00;;;;;;5013635;28;20129;-75
2022/03/17 11:51:19;;;;;;;0.32;0.32;;;15.10;1.00;;;;;;5012261;28;19956;-75
2022/03/17 11:53:50;;;;;;;0.20;0.20;;;15.30;1.00;;;;;;4979590;28;20436;-75
2022/03/17 11:56:43;;;;;;;0.60;0.60;;;15.10;1.00;;;;;;4997476;28;20040;-75
2022/03/17 11:59:13;;;;;;;0.93;0.93;;;15.10;1.00;;;;;;5007607;28;20045;-75
2022/03/17 12:01:45;;;;;;;0.10;0.10;;;15.50;1.00;;;;;;5013774;28;20125;-75
2022/03/17 12:04:31;;;;;;;0.30;0.30;;;15.40;1.00;;;;;;4996987;28;20038;-75
2022/03/17 12:07:09;;;;;;;0.73;0.73;;;15.80;1.00;;;;;;4997614;28;20057;-75
2022/03/17 12:09:35;;;;;;;0.57;0.57;;;15.80;1.00;;;;;;4997604;28;20034;-75
2022/03/17 12:12:03;;;;;;;0.22;0.22;;;15.80;1.00;;;;;;4996754;28;20034;-75
2022/03/17 12:14:29;;;;;;;1.42;1.33;;;15.70;1.00;;;;;;4997195;28;20104;-75
2022/03/17 12:17:04;;;;;;;0.10;0.10;;;15.80;1.00;;;;;;5002368;28;20042;-75
2022/03/17 12:19:31;;;;;;;0.45;0.45;;;15.80;1.00;;;;;;5012802;28;20064;-75
2022/03/17 12:22:03;;;;;;;0.93;0.93;;;15.70;1.00;;;;;;5008547;28;20036;-75
2022/03/17 12:24:49;;;;;;;0.20;0.20;;;15.70;1.00;;;;;;4997664;28;20042;-75
2022/03/17 12:27:29;;;;;;;0.20;0.20;;;16.10;1.00;;;;;;5004391;28;20038;-75
2022/03/17 12:30:07;;;;;;;0.30;0.30;;;16.50;1.00;;;;;;5013992;28;20038;-75
2022/03/17 12:32:37;;;;;;;0.45;0.45;;;16.10;1.00;;;;;;4996494;28;20128;-75
2022/03/17 12:35:04;;;;;;;1.27;1.17;;;16.50;1.00;;;;;;5009602;28;20074;-75
2022/03/17 12:37:32;;;;;;;0.20;0.20;;;16.60;1.00;;;;;;5016510;28;20044;-75
2022/03/17 12:40:02;;;;;;;1.88;0.88;;;16.70;1.00;;;;;;5004054;28;20035;-75
2022/03/17 12:42:30;;;;;;;0.77;0.77;;;16.40;1.00;;;;;;5011846;28;20080;-75
2022/03/17 12:45:04;;;;;;;0.20;0.20;;;16.20;1.00;;;;;;5009642;28;20046;-75
2022/03/17 12:47:32;;;;;;;0.30;0.30;;;16.30;1.00;;;;;;5015638;28;20046;-76
2022/03/17 12:49:59;;;;;;;0.30;0.30;;;16.30;1.00;;;;;;5015663;28;20046;-75
2022/03/17 12:52:30;;;;;;;0.20;0.20;;;16.00;1.00;;;;;;5016611;28;20038;-75
2022/03/17 12:54:58;;;;;;;0.28;0.28;;;16.50;1.00;;;;;;5016745;28;20128;-76
2022/03/17 12:57:26;;;;;;;0.98;0.98;;;16.40;1.00;;;;;;5016531;28;20100;-76
2022/03/17 12:59:53;;;;;;;0.22;0.22;;;16.40;1.00;;;;;;5016323;28;20030;-76
2022/03/17 13:02:20;;;;;;;0.60;0.60;;;16.40;1.00;;;;;;5016253;28;20066;-77
2022/03/17 13:04:49;;;;;;;0.40;0.40;;;16.40;1.00;;;;;;5016623;28;20041;-76
2022/03/17 13:07:16;;;;;;;0.30;0.30;;;16.60;1.00;;;;;;5016714;28;20042;-77
2022/03/17 13:09:42;;;;;;;0.40;0.40;;;16.40;1.00;;;;;;4998770;28;20034;-77
2022/03/17 13:14:55;;;;;;;0.60;0.60;;;16.60;1.00;;;;;;5015885;28;20048;-77
2022/03/17 13:17:43;;;;;;;0.40;0.40;;;16.60;1.00;;;;;;5015681;28;20046;-77
2022/03/17 13:20:22;;;;;;;0.85;0.85;;;16.70;1.00;;;;;;5015839;28;20091;-77
2022/03/17 13:23:07;;;;;;;0.13;0.13;;;16.50;1.00;;;;;;5016132;28;20492;-76
2022/03/17 13:25:38;;;;;;;0.35;0.35;;;16.30;1.00;;;;;;4998159;28;20152;-77
2022/03/17 13:28:14;;;;;;;0.45;0.45;;;16.30;1.00;;;;;;5016045;28;20049;-77
2022/03/17 13:30:45;;;;;;;0.43;0.32;;;16.20;1.00;;;;;;5016110;28;20038;-76
2022/03/17 13:33:12;;;;;;;0.63;0.47;;;16.10;1.00;;;;;;5015859;28;20131;-77
2022/03/17 13:35:45;;;;;;;0.30;0.30;;;15.90;1.00;;;;;;4997834;28;20034;-77
2022/03/17 13:38:18;;;;;;;0.40;0.40;;;15.80;1.00;;;;;;5015975;28;20500;-77
2022/03/17 13:40:52;;;;;;;0.30;0.30;;;15.70;1.00;;;;;;4998615;28;20121;-77
2022/03/17 13:43:28;;;;;;;0.10;0.10;;;15.90;1.00;;;;;;5016325;28;20042;-77
2022/03/17 13:45:54;;;;;;;0.50;0.50;;;15.70;1.00;;;;;;4998086;28;20041;-77
2022/03/17 13:48:22;;;;;;;0.20;0.20;;;15.40;1.00;;;;;;5015658;28;20037;-77
2022/03/17 13:50:59;;;;;;;0.38;0.38;;;15.40;1.00;;;;;;4997806;28;20029;-77
2022/03/17 13:53:33;;;;;;;0.55;0.55;;;15.70;1.00;;;;;;4997837;28;20068;-77
2022/03/17 13:56:05;;;;;;;7.13;0.88;;;15.80;1.00;;;;;;5015178;28;20524;-77
2022/03/17 13:58:37;;;;;;;1.45;0.45;;;15.90;1.00;;;;;;5015219;28;20038;-77
2022/03/17 14:01:17;;;;;;;0.15;0.15;;;15.90;1.00;;;;;;5014903;28;20054;-77
2022/03/17 14:03:59;;;;;;;0.13;0.13;;;16.00;1.00;;;;;;5015765;28;20041;-77
2022/03/17 14:06:35;;;;;;;0.22;0.22;;;16.00;1.00;;;;;;5015097;28;20044;-77
2022/03/17 14:09:07;;;;;;;0.20;0.20;;;15.80;1.00;;;;;;5015091;28;20068;-77
2022/03/17 14:11:36;;;;;;;0.40;0.40;;;15.90;1.00;;;;;;5015364;28;20049;-76
2022/03/17 14:14:10;;;;;;;0.22;0.22;;;16.00;1.00;;;;;;5015462;28;20132;-77
2022/03/17 14:16:38;;;;;;;0.20;0.20;;;15.70;1.00;;;;;;5015078;28;20099;-77
2022/03/17 14:19:05;;;;;;;0.20;0.20;;;15.80;1.00;;;;;;5015663;28;20524;-77
2022/03/17 14:21:32;;;;;;;0.40;0.40;;;16.00;1.00;;;;;;4997200;28;20034;-77
2022/03/17 14:24:12;;;;;;;0.40;0.40;;;15.90;1.00;;;;;;5015117;28;20042;-77
2022/03/17 14:26:44;;;;;;;0.38;0.38;;;15.90;1.00;;;;;;4997206;28;20049;-77